sensor_id;sensor_type;location;lat;lon;timestamp;temperature;humidity
64599;SHT31;51008;51.504;11.548;2023-03-01T00:03:20;-3.75;87.35
64599;SHT31;51008;51.504;11.548;2023-03-01T00:08:21;-3.78;87.82
64599;SHT31;51008;51.504;11.548;2023-03-01T00:13:22;-3.74;87.83
64599;SHT31;51008;51.504;11.548;2023-03-01T00:18:22;-3.74;87.69
64599;SHT31;51008;51.504;11.548;2023-03-01T00:23:24;-3.71;88.55
64599;SHT31;51008;51.504;11.548;2023-03-01T00:28:25;-3.78;87.90
64599;SHT31;51008;51.504;11.548;2023-03-01T00:33:26;-3.86;87.82
64599;SHT31;51008;51.504;11.548;2023-03-01T00:38:27;-3.85;87.70
64599;SHT31;51008;51.504;11.548;2023-03-01T00:43:28;-3.82;88.15
64599;SHT31;51008;51.504;11.548;2023-03-01T00:48:29;-3.93;87.61
64599;SHT31;51008;51.504;11.548;2023-03-01T00:53:30;-4.05;87.73
64599;SHT31;51008;51.504;11.548;2023-03-01T00:58:31;-4.09;87.84
64599;SHT31;51008;51.504;11.548;2023-03-01T01:03:32;-4.23;88.14
64599;SHT31;51008;51.504;11.548;2023-03-01T01:08:33;-4.14;89.00
64599;SHT31;51008;51.504;11.548;2023-03-01T01:13:34;-4.09;88.97
64599;SHT31;51008;51.504;11.548;2023-03-01T01:18:36;-4.07;89.18
64599;SHT31;51008;51.504;11.548;2023-03-01T01:23:38;-4.13;88.63
64599;SHT31;51008;51.504;11.548;2023-03-01T01:28:40;-4.20;88.73
64599;SHT31;51008;51.504;11.548;2023-03-01T01:33:41;-4.07;89.52
64599;SHT31;51008;51.504;11.548;2023-03-01T01:38:42;-4.00;89.34
64599;SHT31;51008;51.504;11.548;2023-03-01T01:43:47;-3.96;89.20
64599;SHT31;51008;51.504;11.548;2023-03-01T01:48:50;-3.95;89.11
64599;SHT31;51008;51.504;11.548;2023-03-01T01:53:58;-4.00;89.08
64599;SHT31;51008;51.504;11.548;2023-03-01T01:59:01;-3.95;89.23
64599;SHT31;51008;51.504;11.548;2023-03-01T02:04:02;-3.95;89.47
64599;SHT31;51008;51.504;11.548;2023-03-01T02:09:10;-3.93;89.72
64599;SHT31;51008;51.504;11.548;2023-03-01T02:14:12;-3.79;89.90
64599;SHT31;51008;51.504;11.548;2023-03-01T02:30:05;-3.92;88.23
64599;SHT31;51008;51.504;11.548;2023-03-01T02:35:06;-3.92;88.62
64599;SHT31;51008;51.504;11.548;2023-03-01T02:40:13;-3.97;88.36
64599;SHT31;51008;51.504;11.548;2023-03-01T02:45:15;-4.14;88.28
64599;SHT31;51008;51.504;11.548;2023-03-01T02:55:30;-4.11;89.16
64599;SHT31;51008;51.504;11.548;2023-03-01T03:00:42;-4.28;88.50
64599;SHT31;51008;51.504;11.548;2023-03-01T03:05:43;-4.28;88.97
64599;SHT31;51008;51.504;11.548;2023-03-01T03:10:44;-4.30;89.08
64599;SHT31;51008;51.504;11.548;2023-03-01T03:15:45;-4.38;88.83
64599;SHT31;51008;51.504;11.548;2023-03-01T03:20:47;-4.48;89.59
64599;SHT31;51008;51.504;11.548;2023-03-01T03:25:49;-4.51;89.15
64599;SHT31;51008;51.504;11.548;2023-03-01T03:30:50;-4.54;89.21
64599;SHT31;51008;51.504;11.548;2023-03-01T03:35:51;-4.55;88.90
64599;SHT31;51008;51.504;11.548;2023-03-01T03:41:01;-4.65;88.74
64599;SHT31;51008;51.504;11.548;2023-03-01T03:46:03;-4.71;88.98
64599;SHT31;51008;51.504;11.548;2023-03-01T03:51:04;-4.59;90.11
64599;SHT31;51008;51.504;11.548;2023-03-01T03:56:06;-4.58;89.64
64599;SHT31;51008;51.504;11.548;2023-03-01T04:01:07;-4.65;89.10
64599;SHT31;51008;51.504;11.548;2023-03-01T04:06:08;-4.75;89.26
64599;SHT31;51008;51.504;11.548;2023-03-01T04:11:09;-4.82;89.50
64599;SHT31;51008;51.504;11.548;2023-03-01T04:16:10;-4.87;89.91
64599;SHT31;51008;51.504;11.548;2023-03-01T04:21:11;-4.89;90.09
64599;SHT31;51008;51.504;11.548;2023-03-01T04:26:12;-4.93;90.41
64599;SHT31;51008;51.504;11.548;2023-03-01T04:31:16;-4.83;90.78
64599;SHT31;51008;51.504;11.548;2023-03-01T04:36:18;-4.86;90.17
64599;SHT31;51008;51.504;11.548;2023-03-01T04:41:22;-4.99;90.01
64599;SHT31;51008;51.504;11.548;2023-03-01T04:46:23;-5.01;90.23
64599;SHT31;51008;51.504;11.548;2023-03-01T04:51:24;-4.99;90.21
64599;SHT31;51008;51.504;11.548;2023-03-01T04:56:25;-5.00;90.45
64599;SHT31;51008;51.504;11.548;2023-03-01T05:01:27;-4.99;90.74
64599;SHT31;51008;51.504;11.548;2023-03-01T05:06:27;-4.90;90.64
64599;SHT31;51008;51.504;11.548;2023-03-01T05:11:28;-5.01;90.41
64599;SHT31;51008;51.504;11.548;2023-03-01T05:16:29;-5.04;90.63
64599;SHT31;51008;51.504;11.548;2023-03-01T05:21:30;-4.96;91.04
64599;SHT31;51008;51.504;11.548;2023-03-01T05:26:31;-5.00;90.50
64599;SHT31;51008;51.504;11.548;2023-03-01T05:31:32;-4.99;90.20
64599;SHT31;51008;51.504;11.548;2023-03-01T05:36:33;-4.97;90.47
64599;SHT31;51008;51.504;11.548;2023-03-01T05:41:34;-4.92;90.68
64599;SHT31;51008;51.504;11.548;2023-03-01T05:46:35;-4.87;90.95
64599;SHT31;51008;51.504;11.548;2023-03-01T05:51:36;-4.83;90.83
64599;SHT31;51008;51.504;11.548;2023-03-01T05:56:37;-4.87;90.68
64599;SHT31;51008;51.504;11.548;2023-03-01T06:01:38;-4.90;90.34
64599;SHT31;51008;51.504;11.548;2023-03-01T06:06:39;-4.92;90.53
64599;SHT31;51008;51.504;11.548;2023-03-01T06:11:40;-4.83;90.98
64599;SHT31;51008;51.504;11.548;2023-03-01T06:16:40;-4.77;90.73
64599;SHT31;51008;51.504;11.548;2023-03-01T06:21:41;-4.62;91.05
64599;SHT31;51008;51.504;11.548;2023-03-01T06:26:42;-4.49;90.81
64599;SHT31;51008;51.504;11.548;2023-03-01T06:31:43;-4.37;90.80
64599;SHT31;51008;51.504;11.548;2023-03-01T06:36:44;-4.17;90.54
64599;SHT31;51008;51.504;11.548;2023-03-01T06:41:46;-4.03;90.36
64599;SHT31;51008;51.504;11.548;2023-03-01T06:46:47;-3.85;90.58
64599;SHT31;51008;51.504;11.548;2023-03-01T06:51:48;-3.55;89.40
64599;SHT31;51008;51.504;11.548;2023-03-01T06:56:50;-3.21;89.37
64599;SHT31;51008;51.504;11.548;2023-03-01T07:01:51;-2.68;89.31
64599;SHT31;51008;51.504;11.548;2023-03-01T07:06:52;-1.88;87.63
64599;SHT31;51008;51.504;11.548;2023-03-01T07:11:52;-1.53;85.95
64599;SHT31;51008;51.504;11.548;2023-03-01T07:16:54;-1.07;84.46
64599;SHT31;51008;51.504;11.548;2023-03-01T07:21:55;-0.19;81.33
64599;SHT31;51008;51.504;11.548;2023-03-01T07:26:56;0.99;78.93
64599;SHT31;51008;51.504;11.548;2023-03-01T07:31:57;2.03;75.14
64599;SHT31;51008;51.504;11.548;2023-03-01T07:36:58;2.96;72.66
64599;SHT31;51008;51.504;11.548;2023-03-01T07:41:59;3.53;69.42
64599;SHT31;51008;51.504;11.548;2023-03-01T07:47:01;4.12;67.68
64599;SHT31;51008;51.504;11.548;2023-03-01T07:52:02;4.85;65.79
64599;SHT31;51008;51.504;11.548;2023-03-01T07:57:03;5.01;63.96
64599;SHT31;51008;51.504;11.548;2023-03-01T08:02:04;5.51;61.56
64599;SHT31;51008;51.504;11.548;2023-03-01T08:07:05;5.85;59.49
64599;SHT31;51008;51.504;11.548;2023-03-01T08:12:06;6.44;59.30
64599;SHT31;51008;51.504;11.548;2023-03-01T08:17:07;6.33;59.18
64599;SHT31;51008;51.504;11.548;2023-03-01T08:22:08;6.63;58.23
64599;SHT31;51008;51.504;11.548;2023-03-01T08:27:09;6.43;58.13
64599;SHT31;51008;51.504;11.548;2023-03-01T08:32:10;6.86;58.14
64599;SHT31;51008;51.504;11.548;2023-03-01T08:37:11;7.30;56.34
64599;SHT31;51008;51.504;11.548;2023-03-01T08:42:12;7.24;56.55
64599;SHT31;51008;51.504;11.548;2023-03-01T08:47:14;7.47;55.18
64599;SHT31;51008;51.504;11.548;2023-03-01T08:52:14;7.58;55.69
64599;SHT31;51008;51.504;11.548;2023-03-01T08:57:15;7.81;55.36
64599;SHT31;51008;51.504;11.548;2023-03-01T09:02:17;8.11;55.38
64599;SHT31;51008;51.504;11.548;2023-03-01T09:07:18;7.94;55.37
64599;SHT31;51008;51.504;11.548;2023-03-01T09:12:19;7.92;55.17
64599;SHT31;51008;51.504;11.548;2023-03-01T09:17:20;7.76;55.17
64599;SHT31;51008;51.504;11.548;2023-03-01T09:22:21;7.59;55.57
64599;SHT31;51008;51.504;11.548;2023-03-01T09:27:22;7.24;56.81
64599;SHT31;51008;51.504;11.548;2023-03-01T09:32:23;7.24;55.77
64599;SHT31;51008;51.504;11.548;2023-03-01T09:37:24;7.13;56.26
64599;SHT31;51008;51.504;11.548;2023-03-01T09:42:26;6.89;55.40
64599;SHT31;51008;51.504;11.548;2023-03-01T09:47:34;7.06;57.03
64599;SHT31;51008;51.504;11.548;2023-03-01T09:53:01;7.12;57.70
64599;SHT31;51008;51.504;11.548;2023-03-01T10:03:28;6.64;56.93
64599;SHT31;51008;51.504;11.548;2023-03-01T10:08:43;6.17;58.07
64599;SHT31;51008;51.504;11.548;2023-03-01T10:14:03;6.65;57.62
64599;SHT31;51008;51.504;11.548;2023-03-01T10:19:11;6.27;57.59
64599;SHT31;51008;51.504;11.548;2023-03-01T10:24:15;6.91;58.04
64599;SHT31;51008;51.504;11.548;2023-03-01T10:29:17;7.03;56.48
64599;SHT31;51008;51.504;11.548;2023-03-01T10:34:27;6.85;56.12
64599;SHT31;51008;51.504;11.548;2023-03-01T10:39:29;6.69;58.13
64599;SHT31;51008;51.504;11.548;2023-03-01T10:44:43;6.63;58.03
64599;SHT31;51008;51.504;11.548;2023-03-01T10:49:56;6.60;57.09
64599;SHT31;51008;51.504;11.548;2023-03-01T11:00:20;6.99;57.74
64599;SHT31;51008;51.504;11.548;2023-03-01T11:05:23;6.84;58.16
64599;SHT31;51008;51.504;11.548;2023-03-01T11:10:27;6.51;57.17
64599;SHT31;51008;51.504;11.548;2023-03-01T11:15:29;6.10;57.13
64599;SHT31;51008;51.504;11.548;2023-03-01T11:20:35;6.75;58.09
64599;SHT31;51008;51.504;11.548;2023-03-01T11:25:40;6.36;56.49
64599;SHT31;51008;51.504;11.548;2023-03-01T11:30:55;6.43;56.70
64599;SHT31;51008;51.504;11.548;2023-03-01T11:36:03;6.26;57.22
64599;SHT31;51008;51.504;11.548;2023-03-01T11:41:25;6.13;55.83
64599;SHT31;51008;51.504;11.548;2023-03-01T11:58:05;6.40;58.59
64599;SHT31;51008;51.504;11.548;2023-03-01T12:13:50;6.25;58.25
64599;SHT31;51008;51.504;11.548;2023-03-01T12:19:08;6.33;59.52
64599;SHT31;51008;51.504;11.548;2023-03-01T12:30:21;6.67;56.72
64599;SHT31;51008;51.504;11.548;2023-03-01T12:40:29;6.78;58.38
64599;SHT31;51008;51.504;11.548;2023-03-01T12:50:58;6.81;55.71
64599;SHT31;51008;51.504;11.548;2023-03-01T12:56:04;6.88;54.12
64599;SHT31;51008;51.504;11.548;2023-03-01T13:01:22;6.88;54.12
64599;SHT31;51008;51.504;11.548;2023-03-01T13:11:52;6.72;52.51
64599;SHT31;51008;51.504;11.548;2023-03-01T13:16:54;6.78;51.79
64599;SHT31;51008;51.504;11.548;2023-03-01T13:21:55;6.85;51.47
64599;SHT31;51008;51.504;11.548;2023-03-01T13:32:19;6.63;50.26
64599;SHT31;51008;51.504;11.548;2023-03-01T13:37:26;6.51;51.75
64599;SHT31;51008;51.504;11.548;2023-03-01T13:42:36;6.68;52.09
64599;SHT31;51008;51.504;11.548;2023-03-01T13:47:38;6.69;51.61
64599;SHT31;51008;51.504;11.548;2023-03-01T13:52:45;6.61;50.73
64599;SHT31;51008;51.504;11.548;2023-03-01T13:57:54;6.45;51.55
64599;SHT31;51008;51.504;11.548;2023-03-01T14:03:09;6.45;51.54
64599;SHT31;51008;51.504;11.548;2023-03-01T14:08:22;6.44;50.42
64599;SHT31;51008;51.504;11.548;2023-03-01T14:23:58;6.27;51.97
64599;SHT31;51008;51.504;11.548;2023-03-01T14:28:59;6.19;51.31
64599;SHT31;51008;51.504;11.548;2023-03-01T14:34:00;6.05;50.58
64599;SHT31;51008;51.504;11.548;2023-03-01T14:39:16;5.94;49.68
64599;SHT31;51008;51.504;11.548;2023-03-01T14:44:23;5.97;51.95
64599;SHT31;51008;51.504;11.548;2023-03-01T14:49:27;5.97;52.96
64599;SHT31;51008;51.504;11.548;2023-03-01T14:54:39;5.85;53.62
64599;SHT31;51008;51.504;11.548;2023-03-01T14:59:42;5.79;53.93
64599;SHT31;51008;51.504;11.548;2023-03-01T15:04:46;5.67;56.06
64599;SHT31;51008;51.504;11.548;2023-03-01T15:09:47;5.58;54.99
64599;SHT31;51008;51.504;11.548;2023-03-01T15:14:48;5.54;55.27
64599;SHT31;51008;51.504;11.548;2023-03-01T15:19:49;5.47;55.19
64599;SHT31;51008;51.504;11.548;2023-03-01T15:24:50;5.39;56.97
64599;SHT31;51008;51.504;11.548;2023-03-01T15:29:59;5.27;55.20
64599;SHT31;51008;51.504;11.548;2023-03-01T15:35:32;5.19;55.07
64599;SHT31;51008;51.504;11.548;2023-03-01T15:40:34;5.07;53.52
64599;SHT31;51008;51.504;11.548;2023-03-01T15:45:35;4.91;53.76
64599;SHT31;51008;51.504;11.548;2023-03-01T15:50:36;4.75;54.97
64599;SHT31;51008;51.504;11.548;2023-03-01T15:55:37;4.68;54.73
64599;SHT31;51008;51.504;11.548;2023-03-01T16:00:38;4.57;56.96
64599;SHT31;51008;51.504;11.548;2023-03-01T16:05:40;4.56;57.37
64599;SHT31;51008;51.504;11.548;2023-03-01T16:10:41;4.43;58.46
64599;SHT31;51008;51.504;11.548;2023-03-01T16:15:42;4.28;58.04
64599;SHT31;51008;51.504;11.548;2023-03-01T16:20:43;4.11;58.27
64599;SHT31;51008;51.504;11.548;2023-03-01T16:25:44;3.99;58.58
64599;SHT31;51008;51.504;11.548;2023-03-01T16:30:46;3.85;59.36
64599;SHT31;51008;51.504;11.548;2023-03-01T16:35:47;3.67;59.35
64599;SHT31;51008;51.504;11.548;2023-03-01T16:40:50;3.52;60.55
64599;SHT31;51008;51.504;11.548;2023-03-01T16:45:51;3.32;62.18
64599;SHT31;51008;51.504;11.548;2023-03-01T16:50:59;3.12;62.70
64599;SHT31;51008;51.504;11.548;2023-03-01T16:56:01;2.91;63.66
64599;SHT31;51008;51.504;11.548;2023-03-01T17:01:10;2.72;64.68
64599;SHT31;51008;51.504;11.548;2023-03-01T17:06:17;2.48;66.04
64599;SHT31;51008;51.504;11.548;2023-03-01T17:11:19;2.18;66.86
64599;SHT31;51008;51.504;11.548;2023-03-01T17:16:21;2.00;67.82
64599;SHT31;51008;51.504;11.548;2023-03-01T17:21:22;1.84;68.29
64599;SHT31;51008;51.504;11.548;2023-03-01T17:26:23;1.80;68.64
64599;SHT31;51008;51.504;11.548;2023-03-01T17:31:24;1.66;69.02
64599;SHT31;51008;51.504;11.548;2023-03-01T17:36:25;1.52;69.28
64599;SHT31;51008;51.504;11.548;2023-03-01T17:41:26;1.35;70.31
64599;SHT31;51008;51.504;11.548;2023-03-01T17:46:27;1.23;70.72
64599;SHT31;51008;51.504;11.548;2023-03-01T17:51:28;1.05;71.34
64599;SHT31;51008;51.504;11.548;2023-03-01T17:56:29;0.92;71.63
64599;SHT31;51008;51.504;11.548;2023-03-01T18:01:30;0.79;71.84
64599;SHT31;51008;51.504;11.548;2023-03-01T18:06:31;0.65;72.07
64599;SHT31;51008;51.504;11.548;2023-03-01T18:11:33;0.57;72.21
64599;SHT31;51008;51.504;11.548;2023-03-01T18:16:35;0.52;72.93
64599;SHT31;51008;51.504;11.548;2023-03-01T18:21:36;0.45;73.76
64599;SHT31;51008;51.504;11.548;2023-03-01T18:26:37;0.28;74.22
64599;SHT31;51008;51.504;11.548;2023-03-01T18:31:38;0.17;73.82
64599;SHT31;51008;51.504;11.548;2023-03-01T18:36:39;0.07;74.36
64599;SHT31;51008;51.504;11.548;2023-03-01T18:41:40;-0.03;74.46
64599;SHT31;51008;51.504;11.548;2023-03-01T18:46:41;-0.14;75.09
64599;SHT31;51008;51.504;11.548;2023-03-01T18:51:42;-0.22;75.14
64599;SHT31;51008;51.504;11.548;2023-03-01T18:56:43;-0.33;75.65
64599;SHT31;51008;51.504;11.548;2023-03-01T19:01:47;-0.46;76.08
64599;SHT31;51008;51.504;11.548;2023-03-01T19:06:48;-0.55;76.68
64599;SHT31;51008;51.504;11.548;2023-03-01T19:11:49;-0.62;76.72
64599;SHT31;51008;51.504;11.548;2023-03-01T19:16:50;-0.70;76.81
64599;SHT31;51008;51.504;11.548;2023-03-01T19:21:51;-0.74;76.88
64599;SHT31;51008;51.504;11.548;2023-03-01T19:26:54;-0.91;77.12
64599;SHT31;51008;51.504;11.548;2023-03-01T19:31:55;-0.95;77.37
64599;SHT31;51008;51.504;11.548;2023-03-01T19:36:56;-0.98;77.87
64599;SHT31;51008;51.504;11.548;2023-03-01T19:41:57;-0.91;77.98
64599;SHT31;51008;51.504;11.548;2023-03-01T19:46:58;-0.94;77.15
64599;SHT31;51008;51.504;11.548;2023-03-01T19:51:59;-0.97;77.16
64599;SHT31;51008;51.504;11.548;2023-03-01T19:57:00;-0.95;77.69
64599;SHT31;51008;51.504;11.548;2023-03-01T20:02:01;-0.97;77.49
64599;SHT31;51008;51.504;11.548;2023-03-01T20:07:02;-1.00;77.69
64599;SHT31;51008;51.504;11.548;2023-03-01T20:12:03;-1.16;77.44
64599;SHT31;51008;51.504;11.548;2023-03-01T20:17:04;-1.38;77.86
64599;SHT31;51008;51.504;11.548;2023-03-01T20:22:05;-1.46;78.32
64599;SHT31;51008;51.504;11.548;2023-03-01T20:27:06;-1.46;79.65
64599;SHT31;51008;51.504;11.548;2023-03-01T20:32:07;-1.53;80.26
64599;SHT31;51008;51.504;11.548;2023-03-01T20:37:08;-1.66;80.90
64599;SHT31;51008;51.504;11.548;2023-03-01T20:42:11;-1.81;81.65
64599;SHT31;51008;51.504;11.548;2023-03-01T20:47:12;-1.85;81.21
64599;SHT31;51008;51.504;11.548;2023-03-01T20:52:13;-1.84;80.75
64599;SHT31;51008;51.504;11.548;2023-03-01T20:57:14;-1.70;80.57
64599;SHT31;51008;51.504;11.548;2023-03-01T21:02:15;-1.63;80.48
64599;SHT31;51008;51.504;11.548;2023-03-01T21:07:16;-1.62;80.00
64599;SHT31;51008;51.504;11.548;2023-03-01T21:12:17;-1.66;80.14
64599;SHT31;51008;51.504;11.548;2023-03-01T21:17:18;-1.64;80.54
64599;SHT31;51008;51.504;11.548;2023-03-01T21:22:18;-1.68;80.74
64599;SHT31;51008;51.504;11.548;2023-03-01T21:27:19;-1.73;80.40
64599;SHT31;51008;51.504;11.548;2023-03-01T21:32:20;-1.68;80.51
64599;SHT31;51008;51.504;11.548;2023-03-01T21:37:21;-1.66;80.37
64599;SHT31;51008;51.504;11.548;2023-03-01T21:42:22;-1.66;80.20
64599;SHT31;51008;51.504;11.548;2023-03-01T21:47:23;-1.70;80.32
64599;SHT31;51008;51.504;11.548;2023-03-01T21:52:24;-1.77;80.26
64599;SHT31;51008;51.504;11.548;2023-03-01T21:57:25;-1.82;80.40
64599;SHT31;51008;51.504;11.548;2023-03-01T22:02:26;-1.97;80.62
64599;SHT31;51008;51.504;11.548;2023-03-01T22:07:29;-2.01;81.05
64599;SHT31;51008;51.504;11.548;2023-03-01T22:12:30;-2.01;80.79
64599;SHT31;51008;51.504;11.548;2023-03-01T22:17:31;-1.97;80.68
64599;SHT31;51008;51.504;11.548;2023-03-01T22:22:32;-1.97;80.74
64599;SHT31;51008;51.504;11.548;2023-03-01T22:27:33;-1.99;80.53
64599;SHT31;51008;51.504;11.548;2023-03-01T22:32:34;-2.08;80.45
64599;SHT31;51008;51.504;11.548;2023-03-01T22:37:35;-2.12;80.22
64599;SHT31;51008;51.504;11.548;2023-03-01T22:42:36;-2.12;80.66
64599;SHT31;51008;51.504;11.548;2023-03-01T22:47:37;-2.36;80.51
64599;SHT31;51008;51.504;11.548;2023-03-01T22:52:37;-2.40;80.66
64599;SHT31;51008;51.504;11.548;2023-03-01T22:57:38;-2.35;81.67
64599;SHT31;51008;51.504;11.548;2023-03-01T23:02:39;-2.36;81.28
64599;SHT31;51008;51.504;11.548;2023-03-01T23:07:40;-2.39;81.56
64599;SHT31;51008;51.504;11.548;2023-03-01T23:12:41;-2.36;81.55
64599;SHT31;51008;51.504;11.548;2023-03-01T23:17:42;-2.39;81.28
64599;SHT31;51008;51.504;11.548;2023-03-01T23:22:43;-2.36;81.47
64599;SHT31;51008;51.504;11.548;2023-03-01T23:27:44;-2.36;81.64
64599;SHT31;51008;51.504;11.548;2023-03-01T23:32:45;-2.46;81.85
64599;SHT31;51008;51.504;11.548;2023-03-01T23:37:46;-2.60;81.93
64599;SHT31;51008;51.504;11.548;2023-03-01T23:42:47;-2.57;82.66
64599;SHT31;51008;51.504;11.548;2023-03-01T23:47:48;-2.57;82.44
64599;SHT31;51008;51.504;11.548;2023-03-01T23:52:48;-2.64;82.44
64599;SHT31;51008;51.504;11.548;2023-03-01T23:57:49;-2.72;83.10
